createdAt,value
2022-10-20T08:05:10.524Z,100093.28
2022-10-20T08:07:41.239Z,100100.75
2022-10-20T08:10:11.445Z,100097.25
2022-10-20T08:12:49.506Z,100091.97
2022-10-20T08:15:25.740Z,100091.78
2022-10-20T08:18:02.307Z,100100.56
2022-10-20T08:20:39.596Z,100094.84
2022-10-20T08:23:10.981Z,100098.13
2022-10-20T08:25:42.478Z,100093.44
2022-10-20T08:28:15.514Z,100094.47
2022-10-20T08:30:47.531Z,100089.69
2022-10-20T08:33:31.540Z,100090.06
2022-10-20T08:36:14.579Z,100093.81
2022-10-20T08:38:47.189Z,100082.50
2022-10-20T08:41:43.434Z,100099.13
2022-10-20T08:44:31.545Z,100093.97
2022-10-20T08:47:20.958Z,100094.78
2022-10-20T08:49:55.360Z,100085.16
2022-10-20T08:52:32.956Z,100091.91
2022-10-20T08:55:07.270Z,100100.88
2022-10-20T08:57:39.663Z,100096.25
2022-10-20T09:00:21.388Z,100088.75
2022-10-20T09:02:56.628Z,100102.69
2022-10-20T09:05:33.422Z,100105.66
2022-10-20T09:08:03.710Z,100099.66
2022-10-20T09:11:02.783Z,100104.09
2022-10-20T09:13:38.454Z,100097.78
2022-10-20T09:16:22.033Z,100098.75
2022-10-20T09:19:07.062Z,100097.38
2022-10-20T09:21:52.428Z,100097.00
2022-10-20T09:24:32.178Z,100101.66
2022-10-20T09:27:23.467Z,100105.84
2022-10-20T09:30:04.045Z,100106.84
2022-10-20T09:32:46.844Z,100110.22
2022-10-20T09:35:46.251Z,100111.81
2022-10-20T09:38:37.396Z,100108.38
2022-10-20T09:41:15.632Z,100118.38
2022-10-20T09:44:07.220Z,100109.56
2022-10-20T09:46:54.474Z,100111.03
2022-10-20T09:49:40.963Z,100105.66
2022-10-20T11:58:14.818Z,100182.09
2022-10-20T12:01:57.160Z,100191.19
2022-10-20T12:05:03.865Z,100197.69
2022-10-20T12:41:25.918Z,100225.56
2022-10-20T12:44:47.652Z,100228.78
2022-10-20T12:47:23.641Z,100227.09
2022-10-20T12:50:07.456Z,100226.06
2022-10-20T12:52:41.550Z,100223.53
2022-10-20T12:59:37.937Z,100229.47
2022-10-20T13:10:04.472Z,100236.72
2022-10-20T13:12:51.431Z,100230.09
2022-10-20T13:15:51.071Z,100231.19
2022-10-20T13:18:29.369Z,100236.72
2022-10-20T13:21:24.652Z,100230.28
2022-10-20T13:24:44.122Z,100222.97
2022-10-20T13:27:18.545Z,100221.72
2022-10-20T13:30:00.942Z,100226.25
2022-10-20T13:33:01.694Z,100223.75
2022-10-20T13:36:00.031Z,100220.41
2022-10-20T13:38:52.538Z,100212.25
2022-10-20T13:41:43.411Z,100211.09
2022-10-20T13:44:34.842Z,100203.97
2022-10-20T13:47:14.174Z,100217.88
2022-10-20T13:49:54.028Z,100208.84
2022-10-20T13:52:23.368Z,100214.28
2022-10-20T13:55:02.545Z,100215.38
2022-10-20T13:57:35.384Z,100207.31
2022-10-20T14:00:20.089Z,100203.84
2022-10-20T14:02:54.673Z,100197.97
2022-10-20T14:05:30.666Z,100200.22
2022-10-20T14:08:06.239Z,100198.53
2022-10-20T14:10:54.940Z,100200.81
2022-10-20T14:13:28.296Z,100199.84
2022-10-20T14:16:01.953Z,100204.19
2022-10-20T14:18:37.239Z,100210.66
2022-10-20T14:21:15.486Z,100205.69
2022-10-20T14:23:46.551Z,100203.66
2022-10-20T14:26:22.312Z,100199.78
2022-10-20T14:29:18.476Z,100187.75
2022-10-20T14:31:50.899Z,100183.41
2022-10-20T14:34:22.423Z,100182.53
2022-10-20T14:36:53.071Z,100178.22
2022-10-20T14:39:38.947Z,100180.69
2022-10-20T14:42:23.508Z,100177.38
2022-10-20T14:44:59.845Z,100172.59
2022-10-20T14:47:36.951Z,100158.91
2022-10-20T14:50:07.206Z,100166.28
2022-10-20T14:52:39.053Z,100161.50
2022-10-20T14:55:33.450Z,100162.59
2022-10-20T14:58:02.861Z,100165.16
2022-10-20T15:00:33.085Z,100161.66
2022-10-20T15:03:07.919Z,100161.00
2022-10-20T15:05:41.832Z,100160.13
2022-10-20T15:08:19.675Z,100160.06
2022-10-20T15:10:49.759Z,100153.88
2022-10-20T15:13:32.107Z,100159.56
2022-10-20T15:16:03.837Z,100150.25
2022-10-20T15:18:37.868Z,100152.88
2022-10-20T15:21:13.103Z,100137.19
2022-10-20T15:23:42.250Z,100146.56
2022-10-20T15:26:16.463Z,100141.88
2022-10-20T15:28:50.905Z,100141.91
2022-10-20T15:31:23.165Z,100134.84
2022-10-20T15:33:54.447Z,100141.16
2022-10-20T15:36:42.501Z,100140.41
2022-10-20T15:39:13.267Z,100142.06
2022-10-20T15:41:43.355Z,100138.03
2022-10-20T15:58:30.443Z,100110.53
2022-10-20T16:01:46.211Z,100110.47
2022-10-20T16:04:54.723Z,100105.84
2022-10-20T16:07:38.545Z,100103.88
2022-10-20T16:10:53.895Z,100100.44
2022-10-20T16:13:26.277Z,100092.72
2022-10-20T16:16:02.868Z,100088.69
2022-10-20T16:18:37.889Z,100097.31
2022-10-20T16:21:09.187Z,100092.19
2022-10-20T16:23:49.665Z,100090.44
2022-10-20T16:26:23.349Z,100084.25
2022-10-20T16:29:02.466Z,100082.59
2022-10-20T16:31:39.527Z,100077.31
2022-10-20T16:35:38.478Z,100082.41
2022-10-20T16:38:50.552Z,100066.84
2022-10-20T16:42:32.006Z,100071.53
2022-10-20T16:45:09.860Z,100054.97
2022-10-20T16:48:30.269Z,100051.97
2022-10-20T16:51:42.662Z,100045.13
2022-10-20T16:54:55.689Z,100033.59
2022-10-20T17:00:39.881Z,100016.72
2022-10-20T17:03:53.676Z,100013.94
2022-10-20T17:14:40.428Z,100007.84
2022-10-20T17:17:34.651Z,99994.44
2022-10-20T17:20:17.827Z,99997.50
2022-10-20T17:23:01.428Z,99978.88
2022-10-20T17:26:11.750Z,99968.59
2022-10-20T17:29:23.747Z,99979.41
2022-10-20T17:32:23.228Z,99976.50
2022-10-20T17:35:07.671Z,99961.13
2022-10-20T17:38:02.265Z,99953.97
2022-10-20T17:40:49.198Z,99953.97
2022-10-20T17:43:20.934Z,99943.25
2022-10-20T17:46:29.264Z,99941.16
2022-10-20T17:53:13.667Z,99939.03
2022-10-20T17:55:54.985Z,99932.09
2022-10-20T18:04:10.545Z,99908.38
2022-10-20T18:07:13.704Z,99909.88
2022-10-20T18:09:51.249Z,99911.28
2022-10-20T18:12:40.906Z,99908.59
2022-10-20T18:16:04.795Z,99904.13
2022-10-20T18:20:28.728Z,99899.63
2022-10-20T18:31:22.293Z,99894.34
2022-10-20T18:34:05.759Z,99895.63
2022-10-20T18:36:39.210Z,99896.00
2022-10-20T18:39:12.653Z,99876.94
2022-10-20T18:41:44.832Z,99876.72
2022-10-20T18:44:25.595Z,99877.50
2022-10-20T18:47:05.225Z,99875.97
2022-10-20T18:49:39.214Z,99868.94
2022-10-20T18:52:18.993Z,99864.81
2022-10-20T18:54:51.236Z,99864.00
2022-10-20T18:57:28.137Z,99866.34
2022-10-20T18:59:58.667Z,99855.31
2022-10-20T19:02:31.751Z,99852.84
2022-10-20T19:05:09.230Z,99846.84
2022-10-20T19:07:39.533Z,99845.00
2022-10-20T19:10:11.521Z,99845.91
2022-10-20T19:12:43.424Z,99842.22
2022-10-20T19:15:23.478Z,99838.31
2022-10-20T19:18:03.104Z,99834.97
2022-10-20T19:20:35.278Z,99819.47
2022-10-20T19:23:06.398Z,99824.03
2022-10-20T19:25:43.423Z,99827.59
2022-10-20T19:28:15.860Z,99821.44
2022-10-20T19:30:49.883Z,99826.84
2022-10-20T19:33:18.709Z,99826.34
2022-10-20T19:35:51.319Z,99811.66
2022-10-20T19:38:30.477Z,99820.31
2022-10-20T19:41:01.331Z,99812.06
2022-10-20T19:43:39.929Z,99807.41
2022-10-20T19:46:15.149Z,99815.75
2022-10-20T19:48:48.866Z,99814.91
2022-10-20T19:51:23.272Z,99811.97
2022-10-20T19:53:56.139Z,99802.22
2022-10-20T19:56:29.194Z,99801.41
2022-10-20T19:59:02.386Z,99813.88
2022-10-20T20:01:34.891Z,99805.28
2022-10-20T20:04:11.055Z,99789.53
2022-10-20T20:06:42.224Z,99792.81
2022-10-20T20:09:13.800Z,99788.94
2022-10-20T20:11:44.424Z,99779.72
2022-10-20T20:14:19.200Z,99785.44
2022-10-20T20:16:51.809Z,99775.22
2022-10-20T20:19:26.142Z,99785.56
2022-10-20T20:21:59.406Z,99776.47
2022-10-20T20:24:46.263Z,99779.94
2022-10-20T20:33:39.575Z,99774.94
2022-10-20T20:36:14.504Z,99767.56
2022-10-20T20:38:47.936Z,99771.13
2022-10-20T20:41:26.873Z,99771.69
2022-10-20T20:44:19.941Z,99780.16
2022-10-20T20:47:10.606Z,99775.00
2022-10-20T20:49:41.272Z,99787.34
2022-10-20T20:52:11.059Z,99785.72
2022-10-20T20:54:42.699Z,99792.75
2022-10-20T20:57:13.838Z,99786.84
2022-10-20T20:59:42.834Z,99777.88
2022-10-20T21:02:24.114Z,99792.56
2022-10-20T21:05:06.868Z,99786.59
2022-10-20T21:07:39.399Z,99787.47
2022-10-20T21:10:15.729Z,99788.03
2022-10-20T21:12:49.427Z,99794.41
2022-10-20T21:15:29.022Z,99797.84
2022-10-20T21:25:21.612Z,99788.97
2022-10-20T21:28:23.519Z,99785.97
2022-10-20T21:32:20.009Z,99787.91
2022-10-20T21:40:51.912Z,99792.81
2022-10-20T21:48:48.279Z,99795.94
2022-10-20T21:52:14.201Z,99799.59
2022-10-20T21:55:18.001Z,99807.25
2022-10-20T22:05:46.860Z,99812.41
2022-10-20T22:20:56.193Z,99826.19
2022-10-20T22:24:11.708Z,99829.59
2022-10-20T22:26:52.027Z,99831.13
2022-10-20T22:31:31.153Z,99832.16
2022-10-20T22:34:47.515Z,99844.44
2022-10-20T22:38:19.563Z,99847.03
2022-10-20T23:23:15.219Z,99893.81
